createdAt,value
2023-04-12T00:00:57.284Z,99879.91
2023-04-12T00:03:27.883Z,99885.50
2023-04-12T00:05:56.065Z,99878.69
2023-04-12T00:08:26.349Z,99867.97
2023-04-12T00:10:54.328Z,99862.63
2023-04-12T00:13:22.244Z,99865.25
2023-04-12T00:15:50.381Z,99857.78
2023-04-12T00:18:18.311Z,99858.03
2023-04-12T00:20:47.613Z,99861.75
2023-04-12T00:23:17.266Z,99856.03
2023-04-12T00:25:45.502Z,99838.38
2023-04-12T00:28:13.391Z,99841.81
2023-04-12T00:30:41.952Z,99830.56
2023-04-12T00:33:10.166Z,99839.03
2023-04-12T00:35:38.217Z,99844.66
2023-04-12T00:38:10.729Z,99832.91
2023-04-12T00:40:42.543Z,99833.56
2023-04-12T00:43:15.613Z,99833.03
2023-04-12T00:45:44.496Z,99825.94
2023-04-12T00:48:12.460Z,99820.28
2023-04-12T00:50:44.875Z,99817.66
2023-04-12T00:53:14.422Z,99817.00
2023-04-12T00:55:43.085Z,99805.56
2023-04-12T00:58:10.994Z,99836.38
2023-04-12T01:00:39.332Z,99842.50
2023-04-12T01:03:08.491Z,99856.06
2023-04-12T01:05:50.395Z,99829.47
2023-04-12T01:08:22.774Z,99820.63
2023-04-12T01:10:53.744Z,99830.06
2023-04-12T01:13:28.531Z,99823.34
2023-04-12T01:16:01.318Z,99813.97
2023-04-12T01:18:29.892Z,99807.56
2023-04-12T01:21:01.855Z,99802.75
2023-04-12T01:23:48.156Z,99806.59
2023-04-12T01:26:22.755Z,99798.31
2023-04-12T01:28:53.609Z,99795.19
2023-04-12T01:31:21.884Z,99784.63
2023-04-12T01:33:51.845Z,99784.03
2023-04-12T01:36:21.381Z,99783.72
2023-04-12T01:38:49.550Z,99770.03
2023-04-12T01:41:17.477Z,99775.31
2023-04-12T01:43:46.097Z,99765.28
2023-04-12T01:46:17.007Z,99768.59
2023-04-12T01:48:48.960Z,99755.22
2023-04-12T01:51:20.105Z,99744.38
2023-04-12T01:53:51.101Z,99745.56
2023-04-12T01:56:19.481Z,99733.81
2023-04-12T01:58:48.628Z,99721.63
2023-04-12T02:01:19.128Z,99718.31
2023-04-12T02:03:49.696Z,99697.84
2023-04-12T02:06:18.203Z,99699.19
2023-04-12T02:08:46.893Z,99702.50
2023-04-12T02:11:15.505Z,99697.22
2023-04-12T02:13:45.809Z,99699.38
2023-04-12T02:16:14.159Z,99688.50
2023-04-12T02:18:43.799Z,99732.59
2023-04-12T02:21:15.341Z,99752.03
2023-04-12T02:23:44.147Z,99734.03
2023-04-12T02:26:12.643Z,99739.81
2023-04-12T02:28:40.660Z,99718.75
2023-04-12T02:31:12.149Z,99718.09
2023-04-12T02:33:43.048Z,99728.81
2023-04-12T02:36:11.979Z,99726.06
2023-04-12T02:38:41.040Z,99722.34
2023-04-12T02:41:09.271Z,99718.53
2023-04-12T02:43:37.682Z,99709.59
2023-04-12T02:46:10.089Z,99716.91
2023-04-12T02:48:45.518Z,99715.56
2023-04-12T02:51:14.262Z,99716.25
2023-04-12T02:53:43.643Z,99715.06
2023-04-12T02:56:19.277Z,99710.63
2023-04-12T02:58:51.083Z,99701.06
2023-04-12T03:01:34.018Z,99700.75
2023-04-12T03:04:23.013Z,99686.25
2023-04-12T03:06:58.326Z,99683.63
2023-04-12T03:09:44.645Z,99700.59
2023-04-12T03:12:13.699Z,99706.50
2023-04-12T03:14:49.995Z,99711.34
2023-04-12T03:17:19.024Z,99697.69
2023-04-12T03:19:48.292Z,99687.94
2023-04-12T03:22:18.163Z,99705.03
2023-04-12T03:24:50.098Z,99690.22
2023-04-12T03:27:21.030Z,99682.13
2023-04-12T03:29:49.716Z,99680.81
2023-04-12T03:32:20.779Z,99662.94
2023-04-12T03:34:51.050Z,99666.56
2023-04-12T03:37:25.142Z,99674.91
2023-04-12T03:39:55.654Z,99679.75
2023-04-12T03:42:32.859Z,99665.88
2023-04-12T03:45:10.425Z,99663.59
2023-04-12T03:47:40.733Z,99639.81
2023-04-12T03:50:12.587Z,99663.28
2023-04-12T03:52:46.203Z,99649.91
2023-04-12T03:55:18.457Z,99645.44
2023-04-12T03:57:49.554Z,99639.00
2023-04-12T04:00:18.450Z,99639.00
2023-04-12T04:02:53.595Z,99618.69
2023-04-12T04:05:23.251Z,99623.97
2023-04-12T04:07:51.880Z,99626.63
2023-04-12T04:10:20.149Z,99615.75
2023-04-12T04:12:48.212Z,99614.91
2023-04-12T04:15:16.308Z,99618.06
2023-04-12T04:17:44.908Z,99606.19
2023-04-12T04:20:13.618Z,99609.81
2023-04-12T04:22:48.285Z,99599.59
2023-04-12T04:25:16.892Z,99581.06
2023-04-12T04:27:52.054Z,99588.69
2023-04-12T04:30:23.114Z,99587.34
2023-04-12T04:32:51.102Z,99584.72
2023-04-12T04:35:24.221Z,99576.78
2023-04-12T04:38:08.402Z,99591.66
2023-04-12T04:40:38.236Z,99626.88
2023-04-12T04:43:08.419Z,99611.38
2023-04-12T04:45:41.413Z,99604.41
2023-04-12T04:48:09.730Z,99592.50
2023-04-12T04:50:37.832Z,99595.56
2023-04-12T04:53:06.298Z,99589.81
2023-04-12T04:55:36.221Z,99588.47
2023-04-12T04:58:04.267Z,99586.19
2023-04-12T05:00:32.310Z,99621.06
2023-04-12T05:03:01.231Z,99629.56
2023-04-12T05:05:30.404Z,99600.72
2023-04-12T05:08:07.794Z,99595.69
2023-04-12T05:10:38.398Z,99585.47
2023-04-12T05:13:06.548Z,99587.94
2023-04-12T05:15:35.105Z,99578.16
2023-04-12T05:18:03.526Z,99561.03
2023-04-12T05:20:32.015Z,99564.56
2023-04-12T05:23:00.269Z,99557.84
2023-04-12T05:25:28.481Z,99563.41
2023-04-12T05:28:06.042Z,99562.91
2023-04-12T05:30:34.517Z,99572.44
2023-04-12T05:33:03.595Z,99581.38
2023-04-12T05:35:32.162Z,99582.47
2023-04-12T05:38:01.198Z,99582.69
2023-04-12T05:40:31.668Z,99604.22
2023-04-12T05:43:00.739Z,99611.44
2023-04-12T05:45:32.798Z,99606.16
2023-04-12T05:48:02.607Z,99603.72
2023-04-12T05:50:31.233Z,99587.69
2023-04-12T05:52:59.199Z,99552.31
2023-04-12T05:55:30.545Z,99545.41
2023-04-12T05:57:58.864Z,99529.59
2023-04-12T06:00:28.964Z,99541.38
2023-04-12T06:02:58.552Z,99549.63
2023-04-12T06:05:26.736Z,99549.28
2023-04-12T06:07:55.359Z,99549.28
2023-04-12T06:10:23.482Z,99549.16
2023-04-12T06:12:54.320Z,99549.97
2023-04-12T06:15:22.382Z,99551.72
2023-04-12T06:17:55.507Z,99534.16
2023-04-12T06:20:24.959Z,99527.44
2023-04-12T06:22:53.382Z,99525.47
2023-04-12T06:25:22.980Z,99524.25
2023-04-12T06:27:51.526Z,99516.69
2023-04-12T06:30:20.586Z,99501.59
2023-04-12T06:32:51.777Z,99502.28
2023-04-12T06:35:20.347Z,99485.19
2023-04-12T06:37:49.930Z,99474.34
2023-04-12T06:40:17.966Z,99482.03
2023-04-12T06:42:45.904Z,99468.38
2023-04-12T06:45:14.424Z,99467.22
2023-04-12T06:47:42.662Z,99464.31
2023-04-12T06:50:11.522Z,99458.69
2023-04-12T06:52:39.389Z,99434.63
2023-04-12T06:55:10.009Z,99426.03
2023-04-12T06:57:38.062Z,99436.63
2023-04-12T07:00:07.179Z,99425.06
2023-04-12T07:02:35.318Z,99434.63
2023-04-12T07:05:03.489Z,99447.03
2023-04-12T07:07:31.398Z,99439.41
2023-04-12T07:10:00.309Z,99430.31
2023-04-12T07:12:29.558Z,99400.06
2023-04-12T07:14:57.768Z,99408.47
2023-04-12T07:17:27.078Z,99387.84
2023-04-12T07:19:55.149Z,99385.75
2023-04-12T07:22:23.077Z,99384.44
2023-04-12T07:24:51.703Z,99361.50
2023-04-12T07:27:20.009Z,99348.59
2023-04-12T07:29:49.524Z,99357.50
2023-04-12T07:32:17.429Z,99361.34
2023-04-12T07:34:45.407Z,99360.81
2023-04-12T07:37:13.336Z,99342.66
2023-04-12T07:39:41.728Z,99340.81
2023-04-12T07:42:10.000Z,99331.84
2023-04-12T07:44:38.955Z,99335.31
2023-04-12T07:47:08.403Z,99320.16
2023-04-12T07:49:36.396Z,99305.78
2023-04-12T07:52:04.508Z,99298.53
2023-04-12T07:54:32.615Z,99303.81
2023-04-12T07:57:01.032Z,99282.66
2023-04-12T07:59:29.466Z,99259.47
2023-04-12T08:01:57.450Z,99242.22
2023-04-12T08:04:28.357Z,99241.72
2023-04-12T08:06:56.539Z,99224.53
2023-04-12T08:09:24.667Z,99244.53
2023-04-12T08:11:53.185Z,99214.78
2023-04-12T08:14:21.409Z,99220.75
2023-04-12T08:16:49.377Z,99250.47
2023-04-12T08:19:17.441Z,99231.81
2023-04-12T08:21:46.809Z,99185.44
2023-04-12T08:24:15.310Z,99200.72
2023-04-12T08:26:44.008Z,99201.75
2023-04-12T08:29:12.243Z,99218.00
2023-04-12T08:31:41.629Z,99214.25
2023-04-12T08:34:09.585Z,99215.94
2023-04-12T08:36:38.123Z,99194.50
2023-04-12T08:39:07.628Z,99199.56
2023-04-12T08:41:37.691Z,99158.38
2023-04-12T08:44:07.486Z,99209.16
2023-04-12T08:46:37.009Z,99207.84
2023-04-12T08:49:05.057Z,99212.09
2023-04-12T08:51:33.265Z,99205.16
2023-04-12T08:54:01.915Z,99188.53
2023-04-12T08:56:31.336Z,99171.56
2023-04-12T08:58:59.223Z,99171.88
2023-04-12T09:01:27.145Z,99172.53
2023-04-12T09:03:55.838Z,99132.44
2023-04-12T09:06:24.456Z,99117.72
2023-04-12T09:08:53.632Z,99130.56
2023-04-12T09:11:25.790Z,99112.97
2023-04-12T09:13:55.450Z,99116.91
2023-04-12T09:16:39.321Z,99105.56
2023-04-12T09:19:08.115Z,99097.44
2023-04-12T09:21:36.533Z,99095.47
2023-04-12T09:24:06.226Z,99085.72
2023-04-12T09:26:34.290Z,99048.78
2023-04-12T09:29:04.257Z,99068.31
2023-04-12T09:31:32.737Z,99016.31
2023-04-12T09:34:08.126Z,99025.72
2023-04-12T09:36:39.603Z,99012.66
2023-04-12T09:39:08.244Z,99017.97
2023-04-12T09:41:36.505Z,99008.66
2023-04-12T09:44:06.027Z,99043.91
2023-04-12T09:46:34.238Z,99056.91
2023-04-12T09:49:03.404Z,99028.03
2023-04-12T09:51:32.948Z,99015.66
2023-04-12T09:54:01.771Z,99014.06
2023-04-12T09:56:30.306Z,98980.78
2023-04-12T09:58:59.683Z,98994.84
2023-04-12T10:01:29.073Z,98985.44
2023-04-12T10:03:57.463Z,98976.44
2023-04-12T10:06:27.020Z,98986.34
2023-04-12T10:08:55.419Z,98959.09
2023-04-12T10:11:25.244Z,98979.97
2023-04-12T10:13:56.073Z,98969.78
2023-04-12T10:16:24.285Z,98964.53
2023-04-12T10:18:53.697Z,98945.72
2023-04-12T10:21:21.734Z,98945.09
2023-04-12T10:23:49.848Z,98949.88
2023-04-12T10:26:17.839Z,98926.31
2023-04-12T10:28:47.623Z,98938.25
2023-04-12T10:31:31.324Z,98944.63
2023-04-12T10:34:02.468Z,98926.22
2023-04-12T10:36:52.377Z,98938.06
2023-04-12T10:39:20.445Z,98920.34
2023-04-12T10:42:36.489Z,98926.56
2023-04-12T10:45:43.510Z,98916.81
2023-04-12T10:48:30.293Z,98931.50
2023-04-12T10:53:53.658Z,98908.06
2023-04-12T10:56:39.644Z,98907.09
2023-04-12T10:59:08.726Z,98916.78
2023-04-12T11:01:42.427Z,98921.16
2023-04-12T11:04:15.960Z,98928.81
2023-04-12T11:06:59.979Z,98933.41
2023-04-12T11:09:43.688Z,98921.13
2023-04-12T11:12:28.771Z,98882.97
2023-04-12T11:15:01.111Z,98881.59
2023-04-12T11:17:38.284Z,98937.34
2023-04-12T11:20:08.083Z,98921.03
2023-04-12T11:22:45.616Z,98883.56
2023-04-12T11:25:17.866Z,98912.03
2023-04-12T11:27:50.583Z,98900.78
2023-04-12T11:30:18.695Z,98859.44
2023-04-12T11:32:47.254Z,98847.66
2023-04-12T11:35:16.418Z,98869.56
2023-04-12T11:37:45.074Z,98843.63
2023-04-12T11:40:13.495Z,98849.63
2023-04-12T11:42:43.125Z,98844.78
2023-04-12T11:45:18.010Z,98853.66
2023-04-12T11:47:46.990Z,98872.19
2023-04-12T11:50:15.518Z,98858.88
2023-04-12T11:52:43.501Z,98866.69
2023-04-12T11:55:12.183Z,98854.97
2023-04-12T11:57:44.370Z,98878.00
2023-04-12T12:00:13.583Z,98897.38
2023-04-12T12:02:49.375Z,98880.59
2023-04-12T12:05:29.879Z,98878.16
2023-04-12T12:10:41.991Z,98895.47
2023-04-12T12:13:23.312Z,98902.00
2023-04-12T12:15:53.074Z,98905.03
2023-04-12T12:18:27.549Z,98869.22
2023-04-12T12:20:56.595Z,98897.47
2023-04-12T12:23:35.578Z,98784.34
2023-04-12T12:26:17.692Z,98910.09
2023-04-12T12:28:50.810Z,98904.88
2023-04-12T12:31:20.255Z,98891.63
2023-04-12T12:33:48.612Z,98890.50
2023-04-12T12:36:19.727Z,98910.06
2023-04-12T12:38:49.228Z,98909.19
2023-04-12T12:41:18.782Z,98897.31
2023-04-12T12:43:48.447Z,98893.41
2023-04-12T12:46:17.644Z,98876.69
2023-04-12T12:48:46.063Z,98873.50
2023-04-12T12:51:17.768Z,98887.44
2023-04-12T12:53:45.947Z,98875.91
2023-04-12T12:56:14.261Z,98881.94
2023-04-12T12:58:42.489Z,98880.50
2023-04-12T13:01:12.327Z,98892.13
2023-04-12T13:03:40.695Z,98904.16
2023-04-12T13:06:10.001Z,98910.69
2023-04-12T13:08:38.527Z,98896.16
2023-04-12T13:11:08.602Z,98861.75
2023-04-12T13:13:36.966Z,98889.88
2023-04-12T13:16:05.663Z,98879.59
2023-04-12T13:18:35.289Z,98894.78
2023-04-12T13:21:03.370Z,98888.47
2023-04-12T13:23:31.653Z,98891.00
2023-04-12T13:25:59.997Z,98880.56
2023-04-12T13:28:30.615Z,98908.91
2023-04-12T13:30:59.438Z,98880.75
2023-04-12T13:33:27.616Z,98891.25
2023-04-12T13:35:57.031Z,98903.94
2023-04-12T13:38:24.987Z,98896.03
2023-04-12T13:40:52.999Z,98891.34
2023-04-12T13:43:21.280Z,98889.16
2023-04-12T13:45:49.314Z,98876.53
2023-04-12T13:48:17.492Z,98880.69
2023-04-12T13:50:46.466Z,98879.84
2023-04-12T13:53:16.906Z,98874.94
2023-04-12T13:55:46.579Z,98880.84
2023-04-12T13:58:14.645Z,98868.41
2023-04-12T14:00:42.652Z,98872.88
2023-04-12T14:03:10.812Z,98892.06
2023-04-12T14:05:39.198Z,98885.56
2023-04-12T14:08:07.208Z,98896.28
2023-04-12T14:10:36.636Z,98905.84
2023-04-12T14:13:04.788Z,98921.72
2023-04-12T14:15:32.719Z,98911.66
2023-04-12T14:18:00.745Z,98903.56
2023-04-12T14:20:28.885Z,98915.75
2023-04-12T14:22:56.909Z,98933.34
2023-04-12T14:25:25.181Z,98921.22
2023-04-12T14:27:54.984Z,98929.38
2023-04-12T14:30:23.082Z,98922.88
2023-04-12T14:32:51.326Z,98937.72
2023-04-12T14:35:19.343Z,98934.53
2023-04-12T14:37:47.980Z,98964.91
2023-04-12T14:40:17.537Z,98964.06
2023-04-12T14:42:45.564Z,98956.88
2023-04-12T14:45:15.710Z,98976.66
2023-04-12T14:47:43.987Z,98979.97
2023-04-12T14:50:12.663Z,98971.25
2023-04-12T14:52:40.792Z,98987.50
2023-04-12T14:55:10.653Z,98990.72
2023-04-12T14:57:39.526Z,98992.19
2023-04-12T15:00:13.411Z,98989.28
2023-04-12T15:02:44.565Z,99035.38
2023-04-12T15:05:13.106Z,99000.72
2023-04-12T15:07:42.490Z,99003.88
2023-04-12T15:10:14.192Z,99016.72
2023-04-12T15:12:42.759Z,99001.84
2023-04-12T15:15:11.775Z,99032.00
2023-04-12T15:17:39.982Z,99040.34
2023-04-12T15:20:11.432Z,99031.41
2023-04-12T15:22:39.724Z,99059.38
2023-04-12T15:25:10.098Z,99041.66
2023-04-12T15:27:38.249Z,99031.28
2023-04-12T15:30:10.933Z,99022.75
2023-04-12T15:32:42.461Z,99056.22
2023-04-12T15:37:44.437Z,99058.03
2023-04-12T15:40:13.867Z,99061.97
2023-04-12T15:42:43.401Z,99067.94
2023-04-12T15:45:12.228Z,99090.00
2023-04-12T15:47:41.760Z,99094.38
2023-04-12T15:50:10.278Z,99100.78
2023-04-12T15:52:42.972Z,99082.66
2023-04-12T15:55:12.856Z,99112.97
2023-04-12T15:57:40.980Z,98978.78
2023-04-12T16:00:21.093Z,99156.16
2023-04-12T16:02:53.621Z,99106.53
2023-04-12T16:05:22.284Z,99173.94
2023-04-12T16:07:51.851Z,99162.50
2023-04-12T16:10:21.199Z,99193.41
2023-04-12T16:12:49.673Z,99193.53
2023-04-12T16:15:18.145Z,99213.00
2023-04-12T16:17:48.508Z,99221.59
2023-04-12T16:20:21.682Z,99226.41
2023-04-12T16:22:54.208Z,99220.28
2023-04-12T16:25:22.262Z,99260.97
2023-04-12T16:27:50.232Z,99246.25
2023-04-12T16:30:18.589Z,99232.03
2023-04-12T16:32:47.557Z,99247.47
2023-04-12T16:35:17.218Z,99261.81
2023-04-12T16:37:45.541Z,99262.69
2023-04-12T16:40:16.862Z,99238.47
2023-04-12T16:42:46.574Z,99288.72
2023-04-12T16:45:15.397Z,99261.28
2023-04-12T16:47:44.015Z,99271.09
2023-04-12T16:50:13.560Z,99296.41
2023-04-12T16:52:42.070Z,99320.72
2023-04-12T16:55:14.190Z,99287.44
2023-04-12T16:57:44.421Z,99323.59
2023-04-12T17:00:21.127Z,99304.94
2023-04-12T17:02:50.165Z,99317.41
2023-04-12T17:05:19.814Z,99351.81
2023-04-12T17:07:49.690Z,99357.72
2023-04-12T17:10:19.457Z,99350.19
2023-04-12T17:12:49.491Z,99350.44
2023-04-12T17:15:18.188Z,99388.31
2023-04-12T17:17:47.620Z,99393.59
2023-04-12T17:20:16.453Z,99376.94
2023-04-12T17:22:44.428Z,99374.09
2023-04-12T17:25:13.338Z,99354.91
2023-04-12T17:27:42.885Z,99397.19
2023-04-12T17:30:13.037Z,99405.16
2023-04-12T17:32:41.148Z,99388.13
2023-04-12T17:35:10.118Z,99430.31
2023-04-12T17:37:38.715Z,99393.63
2023-04-12T17:40:10.573Z,99463.72
2023-04-12T17:42:39.340Z,99430.53
2023-04-12T17:45:11.195Z,99440.56
2023-04-12T17:47:40.606Z,99470.81
2023-04-12T17:50:09.824Z,99433.38
2023-04-12T17:52:37.945Z,99451.00
2023-04-12T17:55:06.606Z,99494.69
2023-04-12T17:57:34.605Z,99471.19
2023-04-12T18:00:02.648Z,99463.72
2023-04-12T18:02:41.804Z,99503.63
2023-04-12T18:05:10.498Z,99501.63
2023-04-12T18:07:39.877Z,99479.25
2023-04-12T18:10:09.242Z,99526.19
2023-04-12T18:12:38.724Z,99537.31
2023-04-12T18:15:08.392Z,99538.09
2023-04-12T18:17:36.508Z,99554.13
2023-04-12T18:20:09.855Z,99509.41
2023-04-12T18:22:38.297Z,99548.91
2023-04-12T18:25:08.151Z,99543.72
2023-04-12T18:27:36.404Z,99564.19
2023-04-12T18:30:05.156Z,99581.28
2023-04-12T18:32:33.376Z,99585.31
2023-04-12T18:35:02.546Z,99617.09
2023-04-12T18:37:31.853Z,99606.88
2023-04-12T18:39:59.787Z,99610.69
2023-04-12T18:42:27.899Z,99588.66
2023-04-12T18:44:56.467Z,99655.91
2023-04-12T18:47:24.492Z,99626.09
2023-04-12T18:49:53.386Z,99647.66
2023-04-12T18:52:21.338Z,99650.59
2023-04-12T18:54:51.043Z,99655.34
2023-04-12T18:57:19.521Z,99678.91
2023-04-12T18:59:48.954Z,99686.66
2023-04-12T19:02:18.307Z,99678.44
2023-04-12T19:04:46.360Z,99708.41
2023-04-12T19:07:15.453Z,99700.50
2023-04-12T19:09:43.404Z,99709.97
2023-04-12T19:12:12.694Z,99714.72
2023-04-12T19:14:40.941Z,99721.47
2023-04-12T19:17:09.513Z,99720.16
2023-04-12T19:19:37.486Z,99775.16
2023-04-12T19:22:05.409Z,99744.31
2023-04-12T19:24:38.880Z,99746.97
2023-04-12T19:27:08.471Z,99751.59
2023-04-12T19:29:37.795Z,99771.84
2023-04-12T19:32:06.860Z,99777.84
2023-04-12T19:34:35.437Z,99795.69
2023-04-12T19:37:03.525Z,99857.59
2023-04-12T19:39:34.714Z,99821.41
2023-04-12T19:42:03.457Z,99821.22
2023-04-12T19:44:31.465Z,99841.91
2023-04-12T19:47:01.610Z,99810.88
2023-04-12T19:49:32.202Z,99835.16
2023-04-12T19:52:00.185Z,99834.78
2023-04-12T19:54:28.295Z,99835.78
2023-04-12T19:56:57.300Z,99856.03
2023-04-12T19:59:27.020Z,99867.09
2023-04-12T20:01:58.105Z,99835.81
2023-04-12T20:04:27.788Z,99857.03
2023-04-12T20:06:55.958Z,99855.94
2023-04-12T20:09:25.383Z,99856.59
2023-04-12T20:11:53.608Z,99862.44
2023-04-12T20:14:21.625Z,99871.06
2023-04-12T20:16:49.905Z,99877.03
2023-04-12T20:19:18.670Z,99867.25
2023-04-12T20:21:50.459Z,99886.63
2023-04-12T20:24:20.227Z,99898.53
2023-04-12T20:26:48.115Z,99902.53
2023-04-12T20:29:16.056Z,99902.56
2023-04-12T20:31:47.220Z,99909.84
2023-04-12T20:34:17.616Z,99938.69
2023-04-12T20:36:47.207Z,99916.47
2023-04-12T20:39:16.530Z,99942.31
2023-04-12T20:41:49.960Z,99940.69
2023-04-12T20:44:18.928Z,99931.72
2023-04-12T20:46:48.865Z,99943.50
2023-04-12T20:49:16.924Z,99949.97
2023-04-12T20:51:46.729Z,99927.25
2023-04-12T20:54:16.783Z,99933.88
2023-04-12T20:56:45.206Z,99968.00
2023-04-12T20:59:13.166Z,99940.84
2023-04-12T21:01:43.200Z,99941.16
2023-04-12T21:04:14.460Z,99927.09
2023-04-12T21:06:42.493Z,99931.25
2023-04-12T21:09:11.066Z,99949.31
2023-04-12T21:11:41.363Z,99952.59
2023-04-12T21:14:11.464Z,99944.66
2023-04-12T21:16:39.614Z,99962.72
2023-04-12T21:19:07.673Z,99980.81
2023-04-12T21:21:36.162Z,99969.03
2023-04-12T21:24:05.485Z,99982.13
2023-04-12T21:26:33.699Z,99984.09
2023-04-12T21:29:03.553Z,99974.81
2023-04-12T21:31:32.420Z,99987.41
2023-04-12T21:34:03.058Z,99998.00
2023-04-12T21:36:32.147Z,99999.81
2023-04-12T21:39:00.694Z,100005.16
2023-04-12T21:41:29.737Z,100036.16
2023-04-12T21:43:57.768Z,100021.91
2023-04-12T21:46:28.217Z,100028.88
2023-04-12T21:48:56.408Z,100038.78
2023-04-12T21:51:24.804Z,100038.13
2023-04-12T21:53:52.954Z,100055.25
2023-04-12T21:56:20.857Z,100062.84
2023-04-12T21:58:48.795Z,100055.50
2023-04-12T22:01:16.885Z,100057.38
2023-04-12T22:03:46.535Z,100053.06
2023-04-12T22:06:14.547Z,100046.22
2023-04-12T22:08:44.189Z,100063.97
2023-04-12T22:11:12.259Z,100059.56
2023-04-12T22:13:41.673Z,100068.00
2023-04-12T22:16:13.140Z,100078.72
2023-04-12T22:18:41.366Z,100068.19
2023-04-12T22:21:12.123Z,100080.09
2023-04-12T22:23:40.649Z,100069.34
2023-04-12T22:26:08.925Z,100058.06
2023-04-12T22:28:37.915Z,100088.22
2023-04-12T22:31:06.223Z,100094.19
2023-04-12T22:33:34.265Z,100079.97
2023-04-12T22:36:06.362Z,100120.78
2023-04-12T22:38:37.108Z,100120.75
2023-04-12T22:41:06.166Z,100123.38
2023-04-12T22:43:41.992Z,100117.53
2023-04-12T22:46:15.664Z,100148.34
2023-04-12T22:48:44.082Z,100141.22
2023-04-12T22:51:12.003Z,100141.00
2023-04-12T22:53:41.409Z,100151.47
2023-04-12T22:56:09.642Z,100135.25
2023-04-12T22:58:40.053Z,100151.25
2023-04-12T23:01:10.837Z,100155.91
2023-04-12T23:03:41.642Z,100162.34
2023-04-12T23:06:12.748Z,100168.09
2023-04-12T23:08:43.620Z,100182.72
2023-04-12T23:11:13.564Z,100167.38
2023-04-12T23:13:44.144Z,100159.56
2023-04-12T23:16:12.197Z,100189.41
2023-04-12T23:18:40.180Z,100184.69
2023-04-12T23:21:11.099Z,100186.09
2023-04-12T23:23:39.120Z,100180.06
2023-04-12T23:26:10.040Z,100184.72
2023-04-12T23:28:40.335Z,100194.38
2023-04-12T23:31:08.441Z,100190.34
2023-04-12T23:33:36.371Z,100186.13
2023-04-12T23:36:05.426Z,100202.28
2023-04-12T23:38:33.884Z,100191.50
2023-04-12T23:41:02.448Z,100195.66
2023-04-12T23:43:32.889Z,100177.78
2023-04-12T23:46:01.612Z,100194.63
2023-04-12T23:48:29.656Z,100194.81
2023-04-12T23:50:57.762Z,100197.00
2023-04-12T23:53:28.414Z,100202.63
2023-04-12T23:55:58.139Z,100201.84
2023-04-12T23:58:26.687Z,100198.88
